sensor_id;sensor_type;location;lat;lon;timestamp;P1;durP1;ratioP1;P2;durP2;ratioP2
20038;SDS011;21737;42.868;25.320;2022-08-19T00:02:30;7.80;;;7.00;;
20038;SDS011;21737;42.868;25.320;2022-08-19T00:05:31;8.43;;;7.63;;
20038;SDS011;21737;42.868;25.320;2022-08-19T00:08:33;9.10;;;7.00;;
20038;SDS011;21737;42.868;25.320;2022-08-19T00:11:35;8.60;;;7.80;;
20038;SDS011;21737;42.868;25.320;2022-08-19T00:14:38;7.83;;;7.03;;
20038;SDS011;21737;42.868;25.320;2022-08-19T00:17:41;8.40;;;7.27;;
20038;SDS011;21737;42.868;25.320;2022-08-19T00:20:43;9.87;;;7.50;;
20038;SDS011;21737;42.868;25.320;2022-08-19T00:23:45;8.27;;;7.43;;
20038;SDS011;21737;42.868;25.320;2022-08-19T00:26:47;8.37;;;7.50;;
20038;SDS011;21737;42.868;25.320;2022-08-19T00:29:49;9.27;;;7.03;;
20038;SDS011;21737;42.868;25.320;2022-08-19T00:32:53;7.87;;;7.07;;
20038;SDS011;21737;42.868;25.320;2022-08-19T00:35:56;10.63;;;7.90;;
20038;SDS011;21737;42.868;25.320;2022-08-19T00:38:58;9.20;;;7.93;;
20038;SDS011;21737;42.868;25.320;2022-08-19T00:41:59;10.13;;;8.17;;
20038;SDS011;21737;42.868;25.320;2022-08-19T00:45:01;10.57;;;8.03;;
20038;SDS011;21737;42.868;25.320;2022-08-19T00:48:03;8.47;;;7.43;;
20038;SDS011;21737;42.868;25.320;2022-08-19T00:51:15;10.13;;;7.67;;
20038;SDS011;21737;42.868;25.320;2022-08-19T00:54:16;8.43;;;7.60;;
20038;SDS011;21737;42.868;25.320;2022-08-19T00:57:19;10.63;;;7.83;;
20038;SDS011;21737;42.868;25.320;2022-08-19T01:00:24;10.23;;;7.30;;
20038;SDS011;21737;42.868;25.320;2022-08-19T01:03:26;9.03;;;7.37;;
20038;SDS011;21737;42.868;25.320;2022-08-19T01:06:27;9.77;;;7.93;;
20038;SDS011;21737;42.868;25.320;2022-08-19T01:09:29;8.97;;;7.70;;
20038;SDS011;21737;42.868;25.320;2022-08-19T01:12:32;8.77;;;7.73;;
20038;SDS011;21737;42.868;25.320;2022-08-19T01:15:35;8.17;;;7.37;;
20038;SDS011;21737;42.868;25.320;2022-08-19T01:18:40;10.67;;;7.83;;
20038;SDS011;21737;42.868;25.320;2022-08-19T01:21:47;10.17;;;7.97;;
20038;SDS011;21737;42.868;25.320;2022-08-19T01:24:51;10.07;;;7.80;;
20038;SDS011;21737;42.868;25.320;2022-08-19T01:27:55;9.77;;;8.00;;
20038;SDS011;21737;42.868;25.320;2022-08-19T01:31:12;8.50;;;7.57;;
20038;SDS011;21737;42.868;25.320;2022-08-19T01:34:28;20.67;;;8.40;;
20038;SDS011;21737;42.868;25.320;2022-08-19T01:37:29;9.70;;;8.70;;
20038;SDS011;21737;42.868;25.320;2022-08-19T01:40:32;8.50;;;7.63;;
20038;SDS011;21737;42.868;25.320;2022-08-19T01:43:34;9.70;;;7.90;;
20038;SDS011;21737;42.868;25.320;2022-08-19T01:46:36;9.30;;;7.90;;
20038;SDS011;21737;42.868;25.320;2022-08-19T01:49:38;9.97;;;8.30;;
20038;SDS011;21737;42.868;25.320;2022-08-19T01:52:40;16.03;;;8.70;;
20038;SDS011;21737;42.868;25.320;2022-08-19T01:55:42;12.03;;;8.00;;
20038;SDS011;21737;42.868;25.320;2022-08-19T01:58:45;10.13;;;7.90;;
20038;SDS011;21737;42.868;25.320;2022-08-19T02:01:48;11.13;;;7.70;;
20038;SDS011;21737;42.868;25.320;2022-08-19T02:04:50;10.33;;;8.00;;
20038;SDS011;21737;42.868;25.320;2022-08-19T02:07:52;9.30;;;7.63;;
20038;SDS011;21737;42.868;25.320;2022-08-19T02:10:54;15.07;;;8.27;;
20038;SDS011;21737;42.868;25.320;2022-08-19T02:13:55;8.67;;;7.80;;
20038;SDS011;21737;42.868;25.320;2022-08-19T02:16:57;8.93;;;7.83;;
20038;SDS011;21737;42.868;25.320;2022-08-19T02:19:59;9.73;;;7.90;;
20038;SDS011;21737;42.868;25.320;2022-08-19T02:23:01;9.27;;;7.63;;
20038;SDS011;21737;42.868;25.320;2022-08-19T02:26:03;9.27;;;8.00;;
20038;SDS011;21737;42.868;25.320;2022-08-19T02:29:05;9.30;;;8.23;;
20038;SDS011;21737;42.868;25.320;2022-08-19T02:32:07;10.97;;;8.43;;
20038;SDS011;21737;42.868;25.320;2022-08-19T02:35:09;13.07;;;8.37;;
20038;SDS011;21737;42.868;25.320;2022-08-19T02:38:13;12.60;;;8.47;;
20038;SDS011;21737;42.868;25.320;2022-08-19T02:41:28;10.50;;;9.40;;
20038;SDS011;21737;42.868;25.320;2022-08-19T02:44:30;10.20;;;9.10;;
20038;SDS011;21737;42.868;25.320;2022-08-19T02:47:32;10.27;;;9.27;;
20038;SDS011;21737;42.868;25.320;2022-08-19T02:50:37;11.63;;;8.83;;
20038;SDS011;21737;42.868;25.320;2022-08-19T02:53:39;11.73;;;8.80;;
20038;SDS011;21737;42.868;25.320;2022-08-19T02:56:42;11.47;;;8.80;;
20038;SDS011;21737;42.868;25.320;2022-08-19T02:59:43;10.13;;;8.97;;
20038;SDS011;21737;42.868;25.320;2022-08-19T03:02:45;9.77;;;8.47;;
20038;SDS011;21737;42.868;25.320;2022-08-19T03:05:48;9.47;;;8.57;;
20038;SDS011;21737;42.868;25.320;2022-08-19T03:08:57;11.30;;;9.07;;
20038;SDS011;21737;42.868;25.320;2022-08-19T03:11:59;11.90;;;8.60;;
20038;SDS011;21737;42.868;25.320;2022-08-19T03:15:00;9.60;;;8.47;;
20038;SDS011;21737;42.868;25.320;2022-08-19T03:18:02;9.70;;;8.53;;
20038;SDS011;21737;42.868;25.320;2022-08-19T03:21:04;12.33;;;8.50;;
20038;SDS011;21737;42.868;25.320;2022-08-19T03:24:07;9.87;;;8.77;;
20038;SDS011;21737;42.868;25.320;2022-08-19T03:27:09;9.73;;;8.73;;
20038;SDS011;21737;42.868;25.320;2022-08-19T03:30:11;9.27;;;8.37;;
20038;SDS011;21737;42.868;25.320;2022-08-19T03:33:13;13.47;;;8.80;;
20038;SDS011;21737;42.868;25.320;2022-08-19T03:36:19;9.43;;;8.50;;
20038;SDS011;21737;42.868;25.320;2022-08-19T03:39:22;12.23;;;9.23;;
20038;SDS011;21737;42.868;25.320;2022-08-19T03:42:24;10.67;;;8.83;;
20038;SDS011;21737;42.868;25.320;2022-08-19T03:45:48;11.80;;;9.93;;
20038;SDS011;21737;42.868;25.320;2022-08-19T03:48:51;9.97;;;8.97;;
20038;SDS011;21737;42.868;25.320;2022-08-19T03:51:57;12.87;;;9.40;;
20038;SDS011;21737;42.868;25.320;2022-08-19T03:54:58;12.37;;;8.87;;
20038;SDS011;21737;42.868;25.320;2022-08-19T03:58:00;13.27;;;9.10;;
20038;SDS011;21737;42.868;25.320;2022-08-19T04:01:02;11.87;;;9.47;;
20038;SDS011;21737;42.868;25.320;2022-08-19T04:04:04;10.07;;;9.00;;
20038;SDS011;21737;42.868;25.320;2022-08-19T04:07:06;10.63;;;9.23;;
20038;SDS011;21737;42.868;25.320;2022-08-19T04:10:08;11.97;;;9.40;;
20038;SDS011;21737;42.868;25.320;2022-08-19T04:13:11;13.83;;;10.33;;
20038;SDS011;21737;42.868;25.320;2022-08-19T04:16:13;15.27;;;9.77;;
20038;SDS011;21737;42.868;25.320;2022-08-19T04:19:15;16.07;;;9.80;;
20038;SDS011;21737;42.868;25.320;2022-08-19T04:22:17;11.10;;;9.50;;
20038;SDS011;21737;42.868;25.320;2022-08-19T04:25:19;12.70;;;9.77;;
20038;SDS011;21737;42.868;25.320;2022-08-19T04:28:21;11.73;;;9.60;;
20038;SDS011;21737;42.868;25.320;2022-08-19T04:31:24;10.03;;;9.00;;
20038;SDS011;21737;42.868;25.320;2022-08-19T04:34:30;11.57;;;8.97;;
20038;SDS011;21737;42.868;25.320;2022-08-19T04:37:34;11.87;;;9.43;;
20038;SDS011;21737;42.868;25.320;2022-08-19T04:40:40;9.80;;;8.80;;
20038;SDS011;21737;42.868;25.320;2022-08-19T04:44:08;13.53;;;9.57;;
20038;SDS011;21737;42.868;25.320;2022-08-19T04:47:10;13.37;;;8.83;;
20038;SDS011;21737;42.868;25.320;2022-08-19T04:50:12;10.00;;;8.70;;
20038;SDS011;21737;42.868;25.320;2022-08-19T04:53:13;10.90;;;9.07;;
20038;SDS011;21737;42.868;25.320;2022-08-19T04:56:15;15.97;;;9.70;;
20038;SDS011;21737;42.868;25.320;2022-08-19T04:59:18;15.00;;;9.07;;
20038;SDS011;21737;42.868;25.320;2022-08-19T05:02:21;11.37;;;8.77;;
20038;SDS011;21737;42.868;25.320;2022-08-19T05:05:26;13.07;;;9.73;;
20038;SDS011;21737;42.868;25.320;2022-08-19T05:08:28;13.17;;;10.63;;
20038;SDS011;21737;42.868;25.320;2022-08-19T05:11:33;9.57;;;8.60;;
20038;SDS011;21737;42.868;25.320;2022-08-19T05:14:34;9.77;;;8.80;;
20038;SDS011;21737;42.868;25.320;2022-08-19T05:17:37;8.80;;;7.90;;
20038;SDS011;21737;42.868;25.320;2022-08-19T05:21:01;9.43;;;8.33;;
20038;SDS011;21737;42.868;25.320;2022-08-19T05:24:25;11.97;;;8.70;;
20038;SDS011;21737;42.868;25.320;2022-08-19T05:27:28;13.00;;;10.13;;
20038;SDS011;21737;42.868;25.320;2022-08-19T05:30:29;10.20;;;9.13;;
20038;SDS011;21737;42.868;25.320;2022-08-19T05:33:47;14.13;;;9.50;;
20038;SDS011;21737;42.868;25.320;2022-08-19T05:36:49;9.03;;;7.90;;
20038;SDS011;21737;42.868;25.320;2022-08-19T05:39:51;12.67;;;9.03;;
20038;SDS011;21737;42.868;25.320;2022-08-19T05:42:53;18.30;;;9.10;;
20038;SDS011;21737;42.868;25.320;2022-08-19T05:45:55;11.20;;;10.07;;
20038;SDS011;21737;42.868;25.320;2022-08-19T05:48:57;15.23;;;10.37;;
20038;SDS011;21737;42.868;25.320;2022-08-19T05:52:01;11.97;;;8.63;;
20038;SDS011;21737;42.868;25.320;2022-08-19T05:55:03;11.63;;;9.07;;
20038;SDS011;21737;42.868;25.320;2022-08-19T05:58:06;13.60;;;8.33;;
20038;SDS011;21737;42.868;25.320;2022-08-19T06:01:09;20.07;;;8.80;;
20038;SDS011;21737;42.868;25.320;2022-08-19T06:04:12;17.70;;;10.17;;
20038;SDS011;21737;42.868;25.320;2022-08-19T06:07:20;16.33;;;9.87;;
20038;SDS011;21737;42.868;25.320;2022-08-19T06:10:22;14.93;;;8.97;;
20038;SDS011;21737;42.868;25.320;2022-08-19T06:13:23;14.97;;;9.47;;
20038;SDS011;21737;42.868;25.320;2022-08-19T06:16:32;11.40;;;7.70;;
20038;SDS011;21737;42.868;25.320;2022-08-19T06:19:36;15.25;;;10.13;;
20038;SDS011;21737;42.868;25.320;2022-08-19T06:22:43;8.95;;;6.88;;
20038;SDS011;21737;42.868;25.320;2022-08-19T06:25:45;11.43;;;8.35;;
20038;SDS011;21737;42.868;25.320;2022-08-19T06:28:47;13.65;;;7.75;;
20038;SDS011;21737;42.868;25.320;2022-08-19T06:31:49;7.82;;;7.03;;
20038;SDS011;21737;42.868;25.320;2022-08-19T06:34:51;11.18;;;7.30;;
20038;SDS011;21737;42.868;25.320;2022-08-19T06:37:53;8.88;;;6.95;;
20038;SDS011;21737;42.868;25.320;2022-08-19T06:41:04;14.00;;;7.78;;
20038;SDS011;21737;42.868;25.320;2022-08-19T06:44:08;14.45;;;9.20;;
20038;SDS011;21737;42.868;25.320;2022-08-19T06:47:14;9.07;;;7.55;;
20038;SDS011;21737;42.868;25.320;2022-08-19T06:50:28;14.45;;;11.23;;
20038;SDS011;21737;42.868;25.320;2022-08-19T06:53:30;11.52;;;7.45;;
20038;SDS011;21737;42.868;25.320;2022-08-19T06:56:33;9.50;;;7.50;;
20038;SDS011;21737;42.868;25.320;2022-08-19T06:59:37;9.00;;;7.30;;
20038;SDS011;21737;42.868;25.320;2022-08-19T07:02:40;9.50;;;7.55;;
20038;SDS011;21737;42.868;25.320;2022-08-19T07:05:48;10.38;;;7.93;;
20038;SDS011;21737;42.868;25.320;2022-08-19T07:08:50;8.77;;;7.97;;
20038;SDS011;21737;42.868;25.320;2022-08-19T07:11:56;11.07;;;8.10;;
20038;SDS011;21737;42.868;25.320;2022-08-19T07:14:58;11.52;;;8.13;;
20038;SDS011;21737;42.868;25.320;2022-08-19T07:18:00;8.25;;;7.43;;
20038;SDS011;21737;42.868;25.320;2022-08-19T07:21:05;13.23;;;10.40;;
20038;SDS011;21737;42.868;25.320;2022-08-19T07:24:09;12.23;;;8.85;;
20038;SDS011;21737;42.868;25.320;2022-08-19T07:27:13;42.83;;;14.73;;
20038;SDS011;21737;42.868;25.320;2022-08-19T07:30:16;10.13;;;6.70;;
20038;SDS011;21737;42.868;25.320;2022-08-19T07:33:18;9.85;;;7.15;;
20038;SDS011;21737;42.868;25.320;2022-08-19T07:36:24;8.93;;;7.60;;
20038;SDS011;21737;42.868;25.320;2022-08-19T07:39:27;9.88;;;8.88;;
20038;SDS011;21737;42.868;25.320;2022-08-19T07:42:30;9.15;;;8.20;;
20038;SDS011;21737;42.868;25.320;2022-08-19T07:45:32;7.32;;;6.63;;
20038;SDS011;21737;42.868;25.320;2022-08-19T07:48:33;7.38;;;6.43;;
20038;SDS011;21737;42.868;25.320;2022-08-19T07:51:35;8.48;;;6.85;;
20038;SDS011;21737;42.868;25.320;2022-08-19T07:54:37;7.93;;;7.15;;
20038;SDS011;21737;42.868;25.320;2022-08-19T07:57:39;8.05;;;7.15;;
20038;SDS011;21737;42.868;25.320;2022-08-19T08:00:41;7.68;;;6.97;;
20038;SDS011;21737;42.868;25.320;2022-08-19T08:03:44;15.05;;;10.10;;
20038;SDS011;21737;42.868;25.320;2022-08-19T08:07:07;10.57;;;7.50;;
20038;SDS011;21737;42.868;25.320;2022-08-19T08:10:32;8.30;;;6.80;;
20038;SDS011;21737;42.868;25.320;2022-08-19T08:13:34;8.88;;;6.47;;
20038;SDS011;21737;42.868;25.320;2022-08-19T08:16:39;8.52;;;6.25;;
20038;SDS011;21737;42.868;25.320;2022-08-19T08:19:47;12.68;;;9.85;;
20038;SDS011;21737;42.868;25.320;2022-08-19T08:22:52;12.82;;;11.52;;
20038;SDS011;21737;42.868;25.320;2022-08-19T08:26:12;7.47;;;6.88;;
20038;SDS011;21737;42.868;25.320;2022-08-19T08:29:16;8.82;;;7.22;;
20038;SDS011;21737;42.868;25.320;2022-08-19T08:32:18;8.40;;;6.75;;
20038;SDS011;21737;42.868;25.320;2022-08-19T08:35:21;6.65;;;6.10;;
20038;SDS011;21737;42.868;25.320;2022-08-19T08:38:23;7.60;;;6.47;;
20038;SDS011;21737;42.868;25.320;2022-08-19T08:41:31;7.65;;;7.05;;
20038;SDS011;21737;42.868;25.320;2022-08-19T08:47:37;10.55;;;6.88;;
20038;SDS011;21737;42.868;25.320;2022-08-19T08:50:51;9.30;;;7.10;;
20038;SDS011;21737;42.868;25.320;2022-08-19T08:53:56;7.53;;;6.82;;
20038;SDS011;21737;42.868;25.320;2022-08-19T08:56:58;8.43;;;7.05;;
20038;SDS011;21737;42.868;25.320;2022-08-19T09:00:02;7.28;;;6.57;;
20038;SDS011;21737;42.868;25.320;2022-08-19T09:03:20;7.60;;;6.80;;
20038;SDS011;21737;42.868;25.320;2022-08-19T09:09:29;7.03;;;6.38;;
20038;SDS011;21737;42.868;25.320;2022-08-19T09:12:51;8.57;;;6.10;;
20038;SDS011;21737;42.868;25.320;2022-08-19T09:15:57;7.15;;;6.47;;
20038;SDS011;21737;42.868;25.320;2022-08-19T09:19:03;7.07;;;6.35;;
20038;SDS011;21737;42.868;25.320;2022-08-19T09:22:06;8.88;;;6.38;;
20038;SDS011;21737;42.868;25.320;2022-08-19T09:25:12;7.32;;;6.18;;
20038;SDS011;21737;42.868;25.320;2022-08-19T09:28:14;12.63;;;6.65;;
20038;SDS011;21737;42.868;25.320;2022-08-19T09:31:29;6.75;;;6.05;;
20038;SDS011;21737;42.868;25.320;2022-08-19T09:34:31;7.00;;;6.30;;
20038;SDS011;21737;42.868;25.320;2022-08-19T09:37:38;7.57;;;6.32;;
20038;SDS011;21737;42.868;25.320;2022-08-19T09:40:40;7.60;;;6.53;;
20038;SDS011;21737;42.868;25.320;2022-08-19T09:43:43;8.15;;;6.70;;
20038;SDS011;21737;42.868;25.320;2022-08-19T09:46:48;7.85;;;6.95;;
20038;SDS011;21737;42.868;25.320;2022-08-19T09:49:50;11.75;;;7.10;;
20038;SDS011;21737;42.868;25.320;2022-08-19T09:52:52;8.18;;;7.35;;
20038;SDS011;21737;42.868;25.320;2022-08-19T09:55:58;7.63;;;6.90;;
20038;SDS011;21737;42.868;25.320;2022-08-19T09:59:00;8.15;;;7.00;;
20038;SDS011;21737;42.868;25.320;2022-08-19T10:02:02;10.35;;;7.25;;
20038;SDS011;21737;42.868;25.320;2022-08-19T10:05:11;8.10;;;7.28;;
20038;SDS011;21737;42.868;25.320;2022-08-19T10:08:33;9.55;;;7.30;;
20038;SDS011;21737;42.868;25.320;2022-08-19T10:11:35;7.93;;;7.13;;
20038;SDS011;21737;42.868;25.320;2022-08-19T10:14:43;7.45;;;6.65;;
20038;SDS011;21737;42.868;25.320;2022-08-19T10:17:47;7.35;;;6.68;;
20038;SDS011;21737;42.868;25.320;2022-08-19T10:21:02;12.25;;;6.90;;
20038;SDS011;21737;42.868;25.320;2022-08-19T10:24:05;9.57;;;6.97;;
20038;SDS011;21737;42.868;25.320;2022-08-19T10:27:09;9.13;;;6.85;;
20038;SDS011;21737;42.868;25.320;2022-08-19T10:30:11;7.20;;;6.38;;
20038;SDS011;21737;42.868;25.320;2022-08-19T10:33:13;9.73;;;7.43;;
20038;SDS011;21737;42.868;25.320;2022-08-19T10:36:36;9.13;;;7.30;;
20038;SDS011;21737;42.868;25.320;2022-08-19T10:39:56;11.13;;;7.45;;
20038;SDS011;21737;42.868;25.320;2022-08-19T10:42:58;7.68;;;6.88;;
20038;SDS011;21737;42.868;25.320;2022-08-19T10:46:00;8.77;;;7.60;;
20038;SDS011;21737;42.868;25.320;2022-08-19T10:49:02;9.55;;;7.57;;
20038;SDS011;21737;42.868;25.320;2022-08-19T10:52:04;11.95;;;7.80;;
20038;SDS011;21737;42.868;25.320;2022-08-19T10:55:33;8.80;;;7.30;;
20038;SDS011;21737;42.868;25.320;2022-08-19T10:58:53;8.10;;;7.30;;
20038;SDS011;21737;42.868;25.320;2022-08-19T11:01:59;9.38;;;7.45;;
20038;SDS011;21737;42.868;25.320;2022-08-19T11:05:01;10.32;;;8.00;;
20038;SDS011;21737;42.868;25.320;2022-08-19T11:08:13;11.27;;;7.63;;
20038;SDS011;21737;42.868;25.320;2022-08-19T11:11:24;10.13;;;7.63;;
20038;SDS011;21737;42.868;25.320;2022-08-19T11:14:26;8.90;;;7.20;;
20038;SDS011;21737;42.868;25.320;2022-08-19T11:17:32;7.93;;;7.13;;
20038;SDS011;21737;42.868;25.320;2022-08-19T11:20:34;12.48;;;7.93;;
20038;SDS011;21737;42.868;25.320;2022-08-19T11:23:35;8.07;;;7.18;;
20038;SDS011;21737;42.868;25.320;2022-08-19T11:26:38;7.75;;;7.03;;
20038;SDS011;21737;42.868;25.320;2022-08-19T11:29:40;8.23;;;7.13;;
20038;SDS011;21737;42.868;25.320;2022-08-19T11:32:42;7.82;;;6.82;;
20038;SDS011;21737;42.868;25.320;2022-08-19T11:35:49;7.82;;;7.00;;
20038;SDS011;21737;42.868;25.320;2022-08-19T11:38:51;8.48;;;7.60;;
20038;SDS011;21737;42.868;25.320;2022-08-19T11:41:53;8.02;;;6.65;;
20038;SDS011;21737;42.868;25.320;2022-08-19T11:44:55;10.68;;;7.10;;
20038;SDS011;21737;42.868;25.320;2022-08-19T11:47:56;9.45;;;7.30;;
20038;SDS011;21737;42.868;25.320;2022-08-19T11:50:58;9.23;;;7.63;;
20038;SDS011;21737;42.868;25.320;2022-08-19T11:54:00;9.30;;;7.30;;
20038;SDS011;21737;42.868;25.320;2022-08-19T11:57:03;9.18;;;7.22;;
20038;SDS011;21737;42.868;25.320;2022-08-19T12:00:05;8.68;;;7.70;;
20038;SDS011;21737;42.868;25.320;2022-08-19T12:03:08;9.55;;;7.40;;
20038;SDS011;21737;42.868;25.320;2022-08-19T12:06:11;6.38;;;5.78;;
20038;SDS011;21737;42.868;25.320;2022-08-19T12:09:14;9.80;;;6.80;;
20038;SDS011;21737;42.868;25.320;2022-08-19T12:12:16;7.30;;;6.55;;
20038;SDS011;21737;42.868;25.320;2022-08-19T12:15:18;7.50;;;6.80;;
20038;SDS011;21737;42.868;25.320;2022-08-19T12:18:20;10.65;;;6.97;;
20038;SDS011;21737;42.868;25.320;2022-08-19T12:21:23;10.20;;;6.82;;
20038;SDS011;21737;42.868;25.320;2022-08-19T12:24:26;9.80;;;6.90;;
20038;SDS011;21737;42.868;25.320;2022-08-19T12:27:28;11.68;;;6.95;;
20038;SDS011;21737;42.868;25.320;2022-08-19T12:30:40;9.05;;;6.78;;
20038;SDS011;21737;42.868;25.320;2022-08-19T12:33:43;8.48;;;6.80;;
20038;SDS011;21737;42.868;25.320;2022-08-19T12:36:44;11.23;;;7.32;;
20038;SDS011;21737;42.868;25.320;2022-08-19T12:39:46;10.77;;;6.15;;
20038;SDS011;21737;42.868;25.320;2022-08-19T12:42:48;8.73;;;7.00;;
20038;SDS011;21737;42.868;25.320;2022-08-19T12:45:51;7.00;;;6.30;;
20038;SDS011;21737;42.868;25.320;2022-08-19T12:48:52;6.75;;;6.15;;
20038;SDS011;21737;42.868;25.320;2022-08-19T12:51:56;8.45;;;6.57;;
20038;SDS011;21737;42.868;25.320;2022-08-19T12:54:59;9.85;;;7.53;;
20038;SDS011;21737;42.868;25.320;2022-08-19T12:58:01;9.00;;;6.65;;
20038;SDS011;21737;42.868;25.320;2022-08-19T13:01:06;8.45;;;6.85;;
20038;SDS011;21737;42.868;25.320;2022-08-19T13:04:08;6.93;;;6.25;;
20038;SDS011;21737;42.868;25.320;2022-08-19T13:07:10;7.03;;;6.30;;
20038;SDS011;21737;42.868;25.320;2022-08-19T13:10:13;8.35;;;6.00;;
20038;SDS011;21737;42.868;25.320;2022-08-19T13:13:16;9.85;;;6.25;;
20038;SDS011;21737;42.868;25.320;2022-08-19T13:16:18;10.60;;;6.65;;
20038;SDS011;21737;42.868;25.320;2022-08-19T13:19:21;6.65;;;6.05;;
20038;SDS011;21737;42.868;25.320;2022-08-19T13:22:24;7.75;;;6.75;;
20038;SDS011;21737;42.868;25.320;2022-08-19T13:25:26;7.18;;;6.50;;
20038;SDS011;21737;42.868;25.320;2022-08-19T13:28:28;7.20;;;6.50;;
20038;SDS011;21737;42.868;25.320;2022-08-19T13:31:52;7.72;;;6.20;;
20038;SDS011;21737;42.868;25.320;2022-08-19T13:35:18;11.23;;;6.35;;
20038;SDS011;21737;42.868;25.320;2022-08-19T13:38:20;6.85;;;6.15;;
20038;SDS011;21737;42.868;25.320;2022-08-19T13:41:22;7.22;;;6.47;;
20038;SDS011;21737;42.868;25.320;2022-08-19T13:44:24;9.25;;;6.57;;
20038;SDS011;21737;42.868;25.320;2022-08-19T13:47:26;8.63;;;6.93;;
20038;SDS011;21737;42.868;25.320;2022-08-19T13:50:28;8.75;;;6.72;;
20038;SDS011;21737;42.868;25.320;2022-08-19T13:53:32;7.78;;;6.53;;
20038;SDS011;21737;42.868;25.320;2022-08-19T13:56:34;8.20;;;6.53;;
20038;SDS011;21737;42.868;25.320;2022-08-19T13:59:36;6.85;;;6.15;;
20038;SDS011;21737;42.868;25.320;2022-08-19T14:02:38;11.38;;;6.40;;
20038;SDS011;21737;42.868;25.320;2022-08-19T14:05:40;9.52;;;6.85;;
20038;SDS011;21737;42.868;25.320;2022-08-19T14:08:42;9.50;;;6.97;;
20038;SDS011;21737;42.868;25.320;2022-08-19T14:11:46;7.47;;;6.68;;
20038;SDS011;21737;42.868;25.320;2022-08-19T14:14:48;8.77;;;7.22;;
20038;SDS011;21737;42.868;25.320;2022-08-19T14:17:50;11.88;;;7.15;;
20038;SDS011;21737;42.868;25.320;2022-08-19T14:20:52;7.88;;;6.75;;
20038;SDS011;21737;42.868;25.320;2022-08-19T14:23:55;11.27;;;6.45;;
20038;SDS011;21737;42.868;25.320;2022-08-19T14:26:59;8.18;;;6.50;;
20038;SDS011;21737;42.868;25.320;2022-08-19T14:30:02;7.95;;;7.18;;
20038;SDS011;21737;42.868;25.320;2022-08-19T14:33:05;7.80;;;6.57;;
20038;SDS011;21737;42.868;25.320;2022-08-19T14:36:07;10.15;;;6.32;;
20038;SDS011;21737;42.868;25.320;2022-08-19T14:39:09;7.03;;;5.95;;
20038;SDS011;21737;42.868;25.320;2022-08-19T14:42:11;7.90;;;6.90;;
20038;SDS011;21737;42.868;25.320;2022-08-19T14:45:13;7.50;;;6.03;;
20038;SDS011;21737;42.868;25.320;2022-08-19T14:48:14;8.35;;;6.55;;
20038;SDS011;21737;42.868;25.320;2022-08-19T14:51:21;8.05;;;6.60;;
20038;SDS011;21737;42.868;25.320;2022-08-19T14:54:23;9.55;;;6.05;;
20038;SDS011;21737;42.868;25.320;2022-08-19T14:57:25;8.75;;;6.00;;
20038;SDS011;21737;42.868;25.320;2022-08-19T15:00:27;10.35;;;6.00;;
20038;SDS011;21737;42.868;25.320;2022-08-19T15:03:29;9.48;;;6.95;;
20038;SDS011;21737;42.868;25.320;2022-08-19T15:06:31;11.98;;;6.68;;
20038;SDS011;21737;42.868;25.320;2022-08-19T15:09:33;11.57;;;6.45;;
20038;SDS011;21737;42.868;25.320;2022-08-19T15:12:35;7.68;;;6.38;;
20038;SDS011;21737;42.868;25.320;2022-08-19T15:15:37;7.57;;;5.95;;
20038;SDS011;21737;42.868;25.320;2022-08-19T15:18:40;7.50;;;6.00;;
20038;SDS011;21737;42.868;25.320;2022-08-19T15:21:45;7.82;;;6.40;;
20038;SDS011;21737;42.868;25.320;2022-08-19T15:24:47;7.03;;;6.32;;
20038;SDS011;21737;42.868;25.320;2022-08-19T15:27:49;8.43;;;6.03;;
20038;SDS011;21737;42.868;25.320;2022-08-19T15:30:51;9.23;;;6.05;;
20038;SDS011;21737;42.868;25.320;2022-08-19T15:33:54;8.65;;;6.43;;
20038;SDS011;21737;42.868;25.320;2022-08-19T15:36:58;12.05;;;6.38;;
20038;SDS011;21737;42.868;25.320;2022-08-19T15:40:00;8.65;;;6.70;;
20038;SDS011;21737;42.868;25.320;2022-08-19T15:43:02;8.60;;;6.35;;
20038;SDS011;21737;42.868;25.320;2022-08-19T15:46:04;6.90;;;6.20;;
20038;SDS011;21737;42.868;25.320;2022-08-19T15:49:06;9.25;;;6.15;;
20038;SDS011;21737;42.868;25.320;2022-08-19T15:52:08;8.60;;;6.28;;
20038;SDS011;21737;42.868;25.320;2022-08-19T15:55:10;8.85;;;6.30;;
20038;SDS011;21737;42.868;25.320;2022-08-19T15:58:32;6.78;;;6.05;;
20038;SDS011;21737;42.868;25.320;2022-08-19T16:01:52;7.75;;;6.65;;
20038;SDS011;21737;42.868;25.320;2022-08-19T16:05:16;9.05;;;6.43;;
20038;SDS011;21737;42.868;25.320;2022-08-19T16:08:36;7.68;;;6.35;;
20038;SDS011;21737;42.868;25.320;2022-08-19T16:11:49;8.57;;;6.32;;
20038;SDS011;21737;42.868;25.320;2022-08-19T16:14:57;7.70;;;6.13;;
20038;SDS011;21737;42.868;25.320;2022-08-19T16:17:59;7.63;;;6.43;;
20038;SDS011;21737;42.868;25.320;2022-08-19T16:21:04;6.78;;;6.07;;
20038;SDS011;21737;42.868;25.320;2022-08-19T16:24:09;9.57;;;6.22;;
20038;SDS011;21737;42.868;25.320;2022-08-19T16:27:11;7.07;;;6.40;;
20038;SDS011;21737;42.868;25.320;2022-08-19T16:30:12;10.68;;;6.78;;
20038;SDS011;21737;42.868;25.320;2022-08-19T16:33:14;7.18;;;6.45;;
20038;SDS011;21737;42.868;25.320;2022-08-19T16:36:23;8.27;;;6.45;;
20038;SDS011;21737;42.868;25.320;2022-08-19T16:39:25;10.43;;;6.90;;
20038;SDS011;21737;42.868;25.320;2022-08-19T16:42:27;9.63;;;6.60;;
20038;SDS011;21737;42.868;25.320;2022-08-19T16:45:28;11.80;;;8.55;;
20038;SDS011;21737;42.868;25.320;2022-08-19T16:48:30;9.10;;;7.22;;
20038;SDS011;21737;42.868;25.320;2022-08-19T16:51:33;9.98;;;6.57;;
20038;SDS011;21737;42.868;25.320;2022-08-19T16:54:38;11.63;;;6.40;;
20038;SDS011;21737;42.868;25.320;2022-08-19T16:57:39;8.98;;;7.03;;
20038;SDS011;21737;42.868;25.320;2022-08-19T17:00:41;9.63;;;7.57;;
20038;SDS011;21737;42.868;25.320;2022-08-19T17:03:43;12.90;;;7.20;;
20038;SDS011;21737;42.868;25.320;2022-08-19T17:06:44;19.08;;;10.43;;
20038;SDS011;21737;42.868;25.320;2022-08-19T17:09:46;17.60;;;9.25;;
20038;SDS011;21737;42.868;25.320;2022-08-19T17:12:51;13.93;;;9.75;;
20038;SDS011;21737;42.868;25.320;2022-08-19T17:15:54;29.90;;;17.92;;
20038;SDS011;21737;42.868;25.320;2022-08-19T17:18:56;11.15;;;8.30;;
20038;SDS011;21737;42.868;25.320;2022-08-19T17:21:58;13.40;;;8.50;;
20038;SDS011;21737;42.868;25.320;2022-08-19T17:25:00;12.77;;;8.23;;
20038;SDS011;21737;42.868;25.320;2022-08-19T17:28:08;17.95;;;9.27;;
20038;SDS011;21737;42.868;25.320;2022-08-19T17:31:10;24.33;;;10.02;;
20038;SDS011;21737;42.868;25.320;2022-08-19T17:34:12;13.10;;;8.93;;
20038;SDS011;21737;42.868;25.320;2022-08-19T17:37:14;19.15;;;9.73;;
20038;SDS011;21737;42.868;25.320;2022-08-19T17:40:16;12.77;;;9.27;;
20038;SDS011;21737;42.868;25.320;2022-08-19T17:43:24;12.95;;;9.50;;
20038;SDS011;21737;42.868;25.320;2022-08-19T17:46:34;13.10;;;8.70;;
20038;SDS011;21737;42.868;25.320;2022-08-19T17:49:36;10.20;;;8.80;;
20038;SDS011;21737;42.868;25.320;2022-08-19T17:52:38;16.13;;;8.63;;
20038;SDS011;21737;42.868;25.320;2022-08-19T17:55:40;10.52;;;8.40;;
20038;SDS011;21737;42.868;25.320;2022-08-19T17:58:41;9.70;;;8.65;;
20038;SDS011;21737;42.868;25.320;2022-08-19T18:01:46;10.73;;;8.60;;
20038;SDS011;21737;42.868;25.320;2022-08-19T18:04:54;12.63;;;8.70;;
20038;SDS011;21737;42.868;25.320;2022-08-19T18:07:56;16.08;;;8.85;;
20038;SDS011;21737;42.868;25.320;2022-08-19T18:10:59;13.27;;;7.73;;
20038;SDS011;21737;42.868;25.320;2022-08-19T18:14:01;12.43;;;8.20;;